createdAt,value
2023-04-30T00:00:01.423Z,42.31
2023-04-30T00:00:57.069Z,41.76
2023-04-30T00:01:48.493Z,39.89
2023-04-30T00:02:40.183Z,38.66
2023-04-30T00:03:31.802Z,37.89
2023-04-30T00:04:23.540Z,38.17
2023-04-30T00:05:16.016Z,37.56
2023-04-30T00:06:07.520Z,38.38
2023-04-30T00:06:59.242Z,37.62
2023-04-30T00:07:53.305Z,37.12
2023-04-30T00:08:45.033Z,35.82
2023-04-30T00:09:38.779Z,37.15
2023-04-30T00:10:30.303Z,36.19
2023-04-30T00:11:21.798Z,36.70
2023-04-30T00:12:13.269Z,37.55
2023-04-30T00:13:05.983Z,38.00
2023-04-30T00:13:58.681Z,36.22
2023-04-30T00:14:53.133Z,36.94
2023-04-30T00:15:46.731Z,37.90
2023-04-30T00:16:38.184Z,38.84
2023-04-30T00:17:29.869Z,38.59
2023-04-30T00:18:24.180Z,38.54
2023-04-30T00:19:15.809Z,38.45
2023-04-30T00:20:08.248Z,36.95
2023-04-30T00:20:59.642Z,36.94
2023-04-30T00:21:51.158Z,35.94
2023-04-30T00:22:45.321Z,35.61
2023-04-30T00:23:36.718Z,37.77
2023-04-30T00:24:28.552Z,37.96
2023-04-30T00:25:21.105Z,35.42
2023-04-30T00:26:12.547Z,36.00
2023-04-30T00:27:09.994Z,33.24
2023-04-30T00:28:01.474Z,32.76
2023-04-30T00:28:54.705Z,33.43
2023-04-30T00:29:46.308Z,33.91
2023-04-30T00:30:37.988Z,35.46
2023-04-30T00:31:29.557Z,35.76
2023-04-30T00:32:21.136Z,36.49
2023-04-30T00:33:12.791Z,35.24
2023-04-30T00:34:04.562Z,35.56
2023-04-30T00:34:56.262Z,36.73
2023-04-30T00:35:53.756Z,36.74
2023-04-30T00:36:45.264Z,35.98
2023-04-30T00:37:36.959Z,35.98
2023-04-30T00:38:28.392Z,37.34
2023-04-30T00:39:20.043Z,37.49
2023-04-30T00:40:12.121Z,36.88
2023-04-30T00:41:04.555Z,37.91
2023-04-30T00:41:55.990Z,38.35
2023-04-30T00:42:48.588Z,37.72
2023-04-30T00:43:40.025Z,37.16
2023-04-30T00:44:31.403Z,34.14
2023-04-30T00:45:25.357Z,33.48
2023-04-30T00:46:16.943Z,32.56
2023-04-30T00:47:08.637Z,33.36
2023-04-30T00:48:00.755Z,32.66
2023-04-30T00:48:52.259Z,31.90
2023-04-30T00:49:44.280Z,31.39
2023-04-30T00:50:36.901Z,30.73
2023-04-30T00:51:29.311Z,31.62
2023-04-30T00:52:20.908Z,32.51
2023-04-30T00:53:13.179Z,32.39
2023-04-30T00:54:05.428Z,31.38
2023-04-30T00:54:57.396Z,29.94
2023-04-30T00:55:49.259Z,30.72
2023-04-30T00:56:41.094Z,30.12
2023-04-30T00:57:36.386Z,28.72
2023-04-30T00:58:28.019Z,28.85
2023-04-30T00:59:19.576Z,29.42
2023-04-30T01:00:11.619Z,29.76
2023-04-30T01:01:04.137Z,27.95
2023-04-30T01:01:56.127Z,29.11
2023-04-30T01:02:49.217Z,29.50
2023-04-30T01:03:42.454Z,30.17
2023-04-30T01:04:35.960Z,28.96
2023-04-30T01:05:27.635Z,29.08
2023-04-30T01:06:19.105Z,26.69
2023-04-30T01:07:11.069Z,25.90
2023-04-30T01:08:02.752Z,26.35
2023-04-30T01:08:55.056Z,26.87
2023-04-30T01:09:46.745Z,26.30
2023-04-30T01:11:05.012Z,26.02
2023-04-30T01:12:13.525Z,26.57
2023-04-30T01:13:28.809Z,27.19
2023-04-30T01:14:40.968Z,26.67
2023-04-30T01:16:00.614Z,26.81
2023-04-30T01:17:17.852Z,28.61
2023-04-30T01:18:25.881Z,26.93
2023-04-30T01:19:35.084Z,26.99
2023-04-30T01:20:29.968Z,27.15
2023-04-30T01:21:23.273Z,27.28
2023-04-30T01:22:52.036Z,26.41
2023-04-30T01:24:06.493Z,25.69
2023-04-30T01:25:21.075Z,25.68
2023-04-30T01:26:53.126Z,25.64
2023-04-30T01:28:05.538Z,24.51
2023-04-30T01:29:02.699Z,24.27
2023-04-30T01:29:56.202Z,25.05
2023-04-30T01:30:49.887Z,24.62
2023-04-30T01:31:46.578Z,24.29
2023-04-30T01:32:42.409Z,24.03
2023-04-30T01:33:33.920Z,24.56
2023-04-30T01:34:27.523Z,24.47
2023-04-30T01:35:19.198Z,25.08
2023-04-30T01:36:26.330Z,24.30
2023-04-30T01:37:25.450Z,22.57
2023-04-30T01:38:46.188Z,23.49
2023-04-30T01:40:06.880Z,23.78
2023-04-30T01:41:15.016Z,24.14
2023-04-30T01:42:23.193Z,23.80
2023-04-30T01:43:36.585Z,22.99
2023-04-30T01:44:46.078Z,24.22
2023-04-30T01:45:46.110Z,22.26
2023-04-30T01:46:37.584Z,21.71
2023-04-30T01:47:55.301Z,21.84
2023-04-30T01:49:01.464Z,23.27
2023-04-30T01:50:17.749Z,23.06
2023-04-30T01:51:23.893Z,22.71
2023-04-30T01:52:23.104Z,23.33
2023-04-30T01:53:21.945Z,22.06
2023-04-30T01:54:29.106Z,23.36
2023-04-30T01:55:28.278Z,23.62
2023-04-30T01:56:31.297Z,22.78
2023-04-30T01:57:32.351Z,23.02
2023-04-30T01:58:25.745Z,21.80
2023-04-30T01:59:17.818Z,22.95
2023-04-30T02:00:11.518Z,23.02
2023-04-30T02:01:06.477Z,22.84
2023-04-30T02:02:00.908Z,23.00
2023-04-30T02:02:53.503Z,22.15
2023-04-30T02:03:45.100Z,22.00
2023-04-30T02:04:36.905Z,21.48
2023-04-30T02:05:29.057Z,20.94
2023-04-30T02:06:21.334Z,21.53
2023-04-30T02:07:29.102Z,21.16
2023-04-30T02:08:20.890Z,19.61
2023-04-30T02:09:12.309Z,19.99
2023-04-30T02:10:04.857Z,19.52
2023-04-30T02:10:56.364Z,20.34
2023-04-30T02:11:47.870Z,20.00
2023-04-30T02:12:40.959Z,19.65
2023-04-30T02:13:34.905Z,19.78
2023-04-30T02:14:27.449Z,19.26
2023-04-30T02:15:19.270Z,20.67
2023-04-30T02:16:10.787Z,21.19
2023-04-30T02:17:02.358Z,19.58
2023-04-30T02:17:53.844Z,19.71
2023-04-30T02:18:46.527Z,19.76
2023-04-30T02:19:39.047Z,21.05
2023-04-30T02:20:30.495Z,20.54
2023-04-30T02:21:22.342Z,19.58
2023-04-30T02:22:14.143Z,20.17
2023-04-30T02:23:05.604Z,20.08
2023-04-30T02:23:57.424Z,21.39
2023-04-30T02:24:49.257Z,22.08
2023-04-30T02:25:41.413Z,21.36
2023-04-30T02:26:32.893Z,21.54
2023-04-30T02:27:26.172Z,23.58
2023-04-30T02:28:17.575Z,21.99
2023-04-30T02:29:09.024Z,21.42
2023-04-30T02:30:01.157Z,18.64
2023-04-30T02:30:52.612Z,18.96
2023-04-30T02:31:44.079Z,20.00
2023-04-30T02:32:36.559Z,19.97
2023-04-30T02:33:28.124Z,19.32
2023-04-30T02:34:19.541Z,19.45
2023-04-30T02:35:11.176Z,20.10
2023-04-30T02:36:04.179Z,21.11
2023-04-30T02:36:55.707Z,19.98
2023-04-30T02:37:49.407Z,20.03
2023-04-30T02:38:40.873Z,19.52
2023-04-30T02:39:32.751Z,18.66
2023-04-30T02:40:24.285Z,18.71
2023-04-30T02:41:15.890Z,18.69
2023-04-30T02:42:07.904Z,19.74
2023-04-30T02:43:01.200Z,19.25
2023-04-30T02:43:53.237Z,19.68
2023-04-30T02:44:44.930Z,19.88
2023-04-30T02:45:38.901Z,18.30
2023-04-30T02:46:33.615Z,18.46
2023-04-30T02:47:25.184Z,17.96
2023-04-30T02:48:16.597Z,17.50
2023-04-30T02:49:08.035Z,17.23
2023-04-30T02:49:59.563Z,17.16
2023-04-30T02:50:53.442Z,18.76
2023-04-30T02:51:45.136Z,18.38
2023-04-30T02:52:36.706Z,17.85
2023-04-30T02:53:28.172Z,17.93
2023-04-30T02:54:19.648Z,18.60
2023-04-30T02:55:11.126Z,18.85
2023-04-30T02:56:02.652Z,19.25
2023-04-30T02:56:54.191Z,19.77
2023-04-30T02:57:45.765Z,19.34
2023-04-30T02:58:37.713Z,18.36
2023-04-30T02:59:29.280Z,17.78
2023-04-30T03:00:23.158Z,18.09
2023-04-30T03:01:15.971Z,18.25
2023-04-30T03:02:08.552Z,18.60
2023-04-30T03:03:00.494Z,19.03
2023-04-30T03:03:52.531Z,19.13
2023-04-30T03:04:44.032Z,17.81
2023-04-30T03:05:38.586Z,17.61
2023-04-30T03:06:31.267Z,17.86
2023-04-30T03:07:22.750Z,17.91
2023-04-30T03:08:14.229Z,17.00
2023-04-30T03:09:05.960Z,17.39
2023-04-30T03:09:57.379Z,19.10
2023-04-30T03:10:48.836Z,19.13
2023-04-30T03:11:41.335Z,18.68
2023-04-30T03:12:33.041Z,20.71
2023-04-30T03:13:27.418Z,19.91
2023-04-30T03:14:18.800Z,19.47
2023-04-30T03:15:10.657Z,19.41
2023-04-30T03:16:08.511Z,18.50
2023-04-30T03:17:01.039Z,18.23
2023-04-30T03:17:55.805Z,18.77
2023-04-30T03:18:51.405Z,18.52
2023-04-30T03:19:42.925Z,18.46
2023-04-30T03:20:34.700Z,18.74
2023-04-30T03:21:26.132Z,19.02
2023-04-30T03:22:23.565Z,19.01
2023-04-30T03:23:15.012Z,19.29
2023-04-30T03:24:07.302Z,17.75
2023-04-30T03:24:58.874Z,17.87
2023-04-30T03:25:50.711Z,18.10
2023-04-30T03:26:42.711Z,18.57
2023-04-30T03:27:34.348Z,18.07
2023-04-30T03:28:26.074Z,17.63
2023-04-30T03:29:17.704Z,17.96
2023-04-30T03:30:10.820Z,18.13
2023-04-30T03:31:05.410Z,17.60
2023-04-30T03:31:57.025Z,17.22
2023-04-30T03:32:49.956Z,17.35
2023-04-30T03:33:41.470Z,17.65
2023-04-30T03:34:32.991Z,17.53
2023-04-30T03:35:25.727Z,17.38
2023-04-30T03:36:17.148Z,17.03
2023-04-30T03:37:12.011Z,17.03
2023-04-30T03:38:03.587Z,18.60
2023-04-30T03:38:57.385Z,18.13
2023-04-30T03:39:48.859Z,17.27
2023-04-30T03:40:40.298Z,17.36
2023-04-30T03:41:32.108Z,18.49
2023-04-30T03:42:23.709Z,18.70
2023-04-30T03:43:15.729Z,18.17
2023-04-30T03:44:14.829Z,18.56
2023-04-30T03:45:06.933Z,18.65
2023-04-30T03:45:58.460Z,19.44
2023-04-30T03:46:50.074Z,19.73
2023-04-30T03:47:42.834Z,20.47
2023-04-30T03:48:34.328Z,19.63
2023-04-30T03:49:25.802Z,18.70
2023-04-30T03:50:18.089Z,20.09
2023-04-30T03:51:09.532Z,19.12
2023-04-30T03:52:01.181Z,19.72
2023-04-30T03:52:56.662Z,19.56
2023-04-30T03:53:49.333Z,18.76
2023-04-30T03:54:40.786Z,19.07
2023-04-30T03:55:33.536Z,18.90
2023-04-30T03:56:26.783Z,19.05
2023-04-30T03:57:18.599Z,18.98
2023-04-30T03:58:10.507Z,18.89
2023-04-30T03:59:02.516Z,19.20
2023-04-30T03:59:56.083Z,18.93
2023-04-30T04:00:48.546Z,19.67
2023-04-30T04:01:42.842Z,19.23
2023-04-30T04:02:34.656Z,19.35
2023-04-30T04:03:27.232Z,19.34
2023-04-30T04:04:19.082Z,20.72
2023-04-30T04:05:10.706Z,20.28
2023-04-30T04:06:02.450Z,20.34
2023-04-30T04:06:54.407Z,19.84
2023-04-30T04:07:45.866Z,20.49
2023-04-30T04:08:37.746Z,21.21
2023-04-30T04:09:29.879Z,19.84
2023-04-30T04:10:23.782Z,18.69
2023-04-30T04:11:15.369Z,18.98
2023-04-30T04:12:11.723Z,19.22
2023-04-30T04:13:03.563Z,18.90
2023-04-30T04:13:55.684Z,19.15
2023-04-30T04:14:47.365Z,20.77
2023-04-30T04:15:38.882Z,21.51
2023-04-30T04:16:30.526Z,19.34
2023-04-30T04:17:22.318Z,19.52
2023-04-30T04:18:13.765Z,19.68
2023-04-30T04:19:05.236Z,20.40
2023-04-30T04:20:50.147Z,20.18
2023-04-30T04:21:42.194Z,21.03
2023-04-30T04:22:39.129Z,19.87
2023-04-30T04:23:30.658Z,19.16
2023-04-30T04:24:24.266Z,19.13
2023-04-30T04:25:18.076Z,19.26
2023-04-30T04:26:11.623Z,19.69
2023-04-30T04:27:03.327Z,21.82
2023-04-30T04:27:54.899Z,23.06
2023-04-30T04:28:47.653Z,22.60
2023-04-30T04:29:39.490Z,21.78
2023-04-30T04:30:30.894Z,21.43
2023-04-30T04:31:22.796Z,21.87
2023-04-30T04:32:14.584Z,22.90
2023-04-30T04:33:07.741Z,22.38
2023-04-30T04:34:04.519Z,21.67
2023-04-30T04:34:57.072Z,22.64
2023-04-30T04:35:48.500Z,22.56
2023-04-30T04:36:40.258Z,22.58
2023-04-30T04:37:31.717Z,24.29
2023-04-30T04:38:23.654Z,21.91
2023-04-30T04:39:15.324Z,21.83
2023-04-30T04:40:07.497Z,21.86
2023-04-30T04:40:59.220Z,21.32
2023-04-30T04:41:53.565Z,20.52
2023-04-30T04:42:44.919Z,19.34
2023-04-30T04:43:37.496Z,20.30
2023-04-30T04:44:29.182Z,19.80
2023-04-30T04:45:21.499Z,18.95
2023-04-30T04:46:16.419Z,19.91
2023-04-30T04:47:08.361Z,17.90
2023-04-30T04:47:59.882Z,18.77
2023-04-30T04:48:54.652Z,18.29
2023-04-30T04:49:46.134Z,18.67
2023-04-30T04:50:37.605Z,18.25
2023-04-30T04:51:29.009Z,18.98
2023-04-30T04:52:20.588Z,18.98
2023-04-30T04:53:13.283Z,18.08
2023-04-30T04:54:04.866Z,18.42
2023-04-30T04:54:57.583Z,18.04
2023-04-30T04:55:52.268Z,18.58
2023-04-30T04:56:43.694Z,18.97
2023-04-30T04:57:37.978Z,20.02
2023-04-30T04:58:29.630Z,20.72
2023-04-30T04:59:21.579Z,21.08
2023-04-30T05:00:14.147Z,20.30
2023-04-30T05:01:09.136Z,22.27
2023-04-30T05:02:00.728Z,23.19
2023-04-30T05:02:53.539Z,23.21
2023-04-30T05:03:45.326Z,21.94
2023-04-30T05:04:36.874Z,22.09
2023-04-30T05:05:28.377Z,20.74
2023-04-30T05:06:19.922Z,21.42
2023-04-30T05:07:11.424Z,20.80
2023-04-30T05:08:02.799Z,19.80
2023-04-30T05:08:55.432Z,18.80
2023-04-30T05:09:47.261Z,18.70
2023-04-30T05:10:38.700Z,18.86
2023-04-30T05:11:30.141Z,18.95
2023-04-30T05:12:21.565Z,19.47
2023-04-30T05:13:13.246Z,18.58
2023-04-30T05:14:07.755Z,19.22
2023-04-30T05:14:59.154Z,19.96
2023-04-30T05:15:53.109Z,19.33
2023-04-30T05:16:44.763Z,19.83
2023-04-30T05:17:36.506Z,19.74
2023-04-30T05:18:27.925Z,18.80
2023-04-30T05:19:19.450Z,19.73
2023-04-30T05:20:12.569Z,19.52
2023-04-30T05:21:04.432Z,19.52
2023-04-30T05:21:56.105Z,18.15
2023-04-30T05:22:47.517Z,17.92
2023-04-30T05:23:39.024Z,19.71
2023-04-30T05:24:30.449Z,19.80
2023-04-30T05:25:21.881Z,20.22
2023-04-30T05:26:23.172Z,19.81
2023-04-30T05:27:14.851Z,18.17
2023-04-30T05:28:06.626Z,17.77
2023-04-30T05:28:58.195Z,18.63
2023-04-30T05:29:49.591Z,18.54
2023-04-30T05:30:40.991Z,18.60
2023-04-30T05:31:32.486Z,19.47
2023-04-30T05:32:24.179Z,19.12
2023-04-30T05:33:15.800Z,18.55
2023-04-30T05:34:07.454Z,19.23
2023-04-30T05:35:01.648Z,17.92
2023-04-30T05:35:53.026Z,18.63
2023-04-30T05:36:46.675Z,18.00
2023-04-30T05:37:38.054Z,19.35
2023-04-30T05:38:29.497Z,20.26
2023-04-30T05:39:20.930Z,18.69
2023-04-30T05:40:13.037Z,18.99
2023-04-30T05:41:04.774Z,20.16
2023-04-30T05:41:56.294Z,20.13
2023-04-30T05:42:50.095Z,20.34
2023-04-30T05:43:41.496Z,22.39
2023-04-30T05:44:32.878Z,21.75
2023-04-30T05:45:24.587Z,22.34
2023-04-30T05:46:16.057Z,21.82
2023-04-30T05:47:10.466Z,21.47
2023-04-30T05:48:02.209Z,21.22
2023-04-30T05:48:53.656Z,21.22
2023-04-30T05:49:45.035Z,21.21
2023-04-30T05:50:36.501Z,20.48
2023-04-30T05:51:28.533Z,20.93
2023-04-30T05:52:20.208Z,20.96
2023-04-30T05:53:11.663Z,19.98
2023-04-30T05:54:03.276Z,20.29
2023-04-30T05:54:54.712Z,20.47
2023-04-30T05:55:47.755Z,20.05
2023-04-30T05:56:39.204Z,20.59
2023-04-30T05:57:30.879Z,20.68
2023-04-30T05:58:22.513Z,20.37
2023-04-30T05:59:14.040Z,19.47
2023-04-30T06:00:11.494Z,19.81
2023-04-30T06:01:10.970Z,21.40
2023-04-30T06:02:02.490Z,22.70
2023-04-30T06:02:54.100Z,22.74
2023-04-30T06:03:45.715Z,24.13
2023-04-30T06:04:37.363Z,22.64
2023-04-30T06:05:28.885Z,21.82
2023-04-30T06:06:21.636Z,20.95
2023-04-30T06:07:13.259Z,22.01
2023-04-30T06:08:04.892Z,21.76
2023-04-30T06:08:56.334Z,20.72
2023-04-30T06:09:47.759Z,20.87
2023-04-30T06:10:39.884Z,20.16
2023-04-30T06:11:31.687Z,19.52
2023-04-30T06:12:23.275Z,19.54
2023-04-30T06:13:15.196Z,20.35
2023-04-30T06:14:06.655Z,19.90
2023-04-30T06:15:00.886Z,19.86
2023-04-30T06:15:52.359Z,20.10
2023-04-30T06:16:45.282Z,19.72
2023-04-30T06:17:36.959Z,20.26
2023-04-30T06:18:28.569Z,19.86
2023-04-30T06:19:20.801Z,19.02
2023-04-30T06:20:12.643Z,19.73
2023-04-30T06:21:06.159Z,19.68
2023-04-30T06:21:59.020Z,20.45
2023-04-30T06:22:50.444Z,19.07
2023-04-30T06:23:41.830Z,19.39
2023-04-30T06:24:33.292Z,20.17
2023-04-30T06:25:24.704Z,20.16
2023-04-30T06:26:16.083Z,20.11
2023-04-30T06:27:07.610Z,19.06
2023-04-30T06:27:59.018Z,19.53
2023-04-30T06:28:50.603Z,20.58
2023-04-30T06:29:42.045Z,18.67
2023-04-30T06:30:34.273Z,18.89
2023-04-30T06:31:26.332Z,19.37
2023-04-30T06:32:19.396Z,18.92
2023-04-30T06:33:10.811Z,18.29
2023-04-30T06:34:02.196Z,19.32
2023-04-30T06:34:53.610Z,18.38
2023-04-30T06:35:45.126Z,18.47
2023-04-30T06:36:36.557Z,18.47
2023-04-30T06:37:28.072Z,17.78
2023-04-30T06:38:20.749Z,18.87
2023-04-30T06:39:17.029Z,18.08
2023-04-30T06:40:08.819Z,18.36
2023-04-30T06:41:00.652Z,19.10
2023-04-30T06:41:52.174Z,18.45
2023-04-30T06:42:45.075Z,18.55
2023-04-30T06:43:37.677Z,17.71
2023-04-30T06:44:29.077Z,17.55
2023-04-30T06:45:20.851Z,17.68
2023-04-30T06:46:12.300Z,19.32
2023-04-30T06:47:03.830Z,18.08
2023-04-30T06:47:55.797Z,17.70
2023-04-30T06:48:47.334Z,17.98
2023-04-30T06:49:38.833Z,17.64
2023-04-30T06:50:32.505Z,17.42
2023-04-30T06:51:23.923Z,18.06
2023-04-30T06:52:15.345Z,17.48
2023-04-30T06:53:06.719Z,16.42
2023-04-30T06:53:58.090Z,16.71
2023-04-30T06:54:50.703Z,17.48
2023-04-30T06:55:43.046Z,18.22
2023-04-30T06:56:34.703Z,18.09
2023-04-30T06:57:27.229Z,18.49
2023-04-30T06:58:19.379Z,18.05
2023-04-30T06:59:10.770Z,18.21
2023-04-30T07:00:04.244Z,19.22
2023-04-30T07:01:02.035Z,18.47
2023-04-30T07:01:53.637Z,18.18
2023-04-30T07:02:47.773Z,18.60
2023-04-30T07:03:40.725Z,18.95
2023-04-30T07:04:32.581Z,17.37
2023-04-30T07:05:24.007Z,16.98
2023-04-30T07:06:15.605Z,19.45
2023-04-30T07:07:07.023Z,19.54
2023-04-30T07:08:03.352Z,18.68
2023-04-30T07:08:54.852Z,17.95
2023-04-30T07:09:49.622Z,18.51
2023-04-30T07:10:42.400Z,17.98
2023-04-30T07:11:33.807Z,18.75
2023-04-30T07:12:25.306Z,19.86
2023-04-30T07:13:17.086Z,19.47
2023-04-30T07:14:08.610Z,19.03
2023-04-30T07:15:00.498Z,19.95
2023-04-30T07:15:52.591Z,17.99
2023-04-30T07:16:46.979Z,18.39
2023-04-30T07:17:38.569Z,17.86
2023-04-30T07:18:30.070Z,18.30
2023-04-30T07:19:21.560Z,17.60
2023-04-30T07:20:16.261Z,18.10
2023-04-30T07:21:08.613Z,18.23
2023-04-30T07:22:00.049Z,18.12
2023-04-30T07:22:56.142Z,18.57
2023-04-30T07:23:48.571Z,18.88
2023-04-30T07:24:40.024Z,19.01
2023-04-30T07:25:34.465Z,19.76
2023-04-30T07:26:26.408Z,19.23
2023-04-30T07:27:20.295Z,18.98
2023-04-30T07:28:11.874Z,18.38
2023-04-30T07:29:04.840Z,19.00
2023-04-30T07:29:56.725Z,19.10
2023-04-30T07:30:48.552Z,18.74
2023-04-30T07:31:40.130Z,19.39
2023-04-30T07:32:31.776Z,19.32
2023-04-30T07:33:23.412Z,19.02
2023-04-30T07:34:14.836Z,18.76
2023-04-30T07:35:06.434Z,19.26
2023-04-30T07:35:58.872Z,17.55
2023-04-30T07:36:50.333Z,18.28
2023-04-30T07:37:43.744Z,18.08
2023-04-30T07:38:35.197Z,17.41
2023-04-30T07:39:26.704Z,17.10
2023-04-30T07:40:28.627Z,17.28
2023-04-30T07:41:26.254Z,18.59
2023-04-30T07:42:18.996Z,17.66
2023-04-30T07:43:10.371Z,18.09
2023-04-30T07:44:01.768Z,18.03
2023-04-30T07:44:53.174Z,17.03
2023-04-30T07:45:46.646Z,17.39
2023-04-30T07:46:38.334Z,18.44
2023-04-30T07:47:30.686Z,18.07
2023-04-30T07:48:22.202Z,17.87
2023-04-30T07:49:13.713Z,16.99
2023-04-30T07:50:06.038Z,17.85
2023-04-30T07:50:57.523Z,16.86
2023-04-30T07:51:49.197Z,16.68
2023-04-30T07:52:41.599Z,17.83
2023-04-30T07:53:33.090Z,17.19
2023-04-30T07:54:24.538Z,17.21
2023-04-30T07:55:19.075Z,17.96
2023-04-30T07:56:10.557Z,17.65
2023-04-30T07:57:03.341Z,17.54
2023-04-30T07:57:54.803Z,17.57
2023-04-30T07:58:46.419Z,18.12
2023-04-30T07:59:37.892Z,17.41
2023-04-30T08:00:32.019Z,16.31
2023-04-30T08:01:23.473Z,17.56
2023-04-30T08:02:15.014Z,17.07
2023-04-30T08:03:06.722Z,16.22
2023-04-30T08:03:58.336Z,16.91
2023-04-30T08:04:49.930Z,17.30
2023-04-30T08:05:41.421Z,16.99
2023-04-30T08:06:35.367Z,16.59
2023-04-30T08:07:29.010Z,16.16
2023-04-30T08:08:20.495Z,15.28
2023-04-30T08:09:11.985Z,15.85
2023-04-30T08:10:03.670Z,15.77
2023-04-30T08:10:55.314Z,15.49
2023-04-30T08:11:46.768Z,15.85
2023-04-30T08:12:38.966Z,15.28
2023-04-30T08:13:30.885Z,15.03
2023-04-30T08:14:22.418Z,14.94
2023-04-30T08:15:16.016Z,15.16
2023-04-30T08:16:07.728Z,15.38
2023-04-30T08:17:00.858Z,14.69
2023-04-30T08:17:52.675Z,14.51
2023-04-30T08:18:46.450Z,15.88
2023-04-30T08:19:37.812Z,14.95
2023-04-30T08:20:29.360Z,14.93
2023-04-30T08:21:20.944Z,14.77
2023-04-30T08:22:12.417Z,14.52
2023-04-30T08:23:04.297Z,14.51
2023-04-30T08:23:55.793Z,13.80
2023-04-30T08:24:47.266Z,13.28
2023-04-30T08:25:38.667Z,14.11
2023-04-30T08:26:30.110Z,14.21
2023-04-30T08:27:22.274Z,13.58
2023-04-30T08:28:13.702Z,13.18
2023-04-30T08:29:05.592Z,13.81
2023-04-30T08:29:57.403Z,13.48
2023-04-30T08:30:48.988Z,13.01
2023-04-30T08:31:41.614Z,13.35
2023-04-30T08:32:37.292Z,13.20
2023-04-30T08:33:28.846Z,13.43
2023-04-30T08:34:20.568Z,12.52
2023-04-30T08:35:12.217Z,12.34
2023-04-30T08:36:18.791Z,12.35
2023-04-30T08:37:10.498Z,12.20
2023-04-30T08:38:04.247Z,12.45
2023-04-30T08:39:04.016Z,11.58
2023-04-30T08:40:21.008Z,11.84
2023-04-30T08:41:14.487Z,11.23
2023-04-30T08:42:09.739Z,11.03
2023-04-30T08:43:05.739Z,11.20
2023-04-30T08:44:04.768Z,11.41
2023-04-30T08:45:03.336Z,11.40
2023-04-30T08:45:55.870Z,10.05
2023-04-30T08:46:53.300Z,9.82
2023-04-30T08:47:45.435Z,11.29
2023-04-30T08:48:37.010Z,11.93
2023-04-30T08:49:32.727Z,12.63
2023-04-30T08:50:24.170Z,10.76
2023-04-30T08:51:16.313Z,10.89
2023-04-30T08:52:08.392Z,11.03
2023-04-30T08:53:00.848Z,10.96
2023-04-30T08:53:56.513Z,10.82
2023-04-30T08:54:50.997Z,10.52
2023-04-30T08:55:42.533Z,9.93
2023-04-30T08:56:35.081Z,9.57
2023-04-30T08:57:27.004Z,8.30
2023-04-30T08:58:18.683Z,8.17
2023-04-30T08:59:13.885Z,8.15
2023-04-30T09:00:07.235Z,7.92
2023-04-30T09:00:59.883Z,8.68
2023-04-30T09:01:53.671Z,8.56
2023-04-30T09:02:48.101Z,8.75
2023-04-30T09:03:39.751Z,8.77
2023-04-30T09:04:31.721Z,8.28
2023-04-30T09:05:23.136Z,7.62
2023-04-30T09:06:17.782Z,6.88
2023-04-30T09:08:04.004Z,7.11
2023-04-30T09:08:55.937Z,7.20
2023-04-30T09:09:47.418Z,7.10
2023-04-30T09:10:38.979Z,6.87
2023-04-30T09:11:31.681Z,6.70
2023-04-30T09:12:23.205Z,6.00
2023-04-30T09:13:14.593Z,6.67
2023-04-30T09:14:06.075Z,7.09
2023-04-30T09:15:04.378Z,7.02
2023-04-30T09:15:59.665Z,6.97
2023-04-30T09:16:52.601Z,6.49
2023-04-30T09:17:44.357Z,6.31
2023-04-30T09:18:39.830Z,5.68
2023-04-30T09:19:32.067Z,3.85
2023-04-30T09:20:26.139Z,3.46
2023-04-30T09:21:20.273Z,3.59
2023-04-30T09:22:24.194Z,3.47
2023-04-30T09:23:15.602Z,2.45
2023-04-30T09:24:08.045Z,2.10
2023-04-30T09:24:59.484Z,1.90
2023-04-30T09:25:51.156Z,1.89
2023-04-30T09:26:44.026Z,2.62
2023-04-30T09:27:35.804Z,2.05
2023-04-30T09:28:30.611Z,2.02
2023-04-30T09:29:22.406Z,2.00
2023-04-30T09:30:31.824Z,1.84
2023-04-30T09:31:24.713Z,1.86
2023-04-30T09:32:16.433Z,2.16
2023-04-30T09:33:11.321Z,2.23
2023-04-30T09:34:04.515Z,1.88
2023-04-30T09:34:58.937Z,2.28
2023-04-30T09:35:50.660Z,2.17
2023-04-30T09:36:54.668Z,2.20
2023-04-30T09:37:46.212Z,2.00
2023-04-30T09:38:37.629Z,2.25
2023-04-30T09:39:30.134Z,2.13
2023-04-30T09:40:36.546Z,1.90
2023-04-30T09:41:29.093Z,1.91
2023-04-30T09:42:22.097Z,1.71
2023-04-30T09:43:13.543Z,1.96
2023-04-30T09:44:07.496Z,1.97
2023-04-30T09:44:59.206Z,1.87
2023-04-30T09:45:52.764Z,1.86
2023-04-30T09:46:45.952Z,1.83
2023-04-30T09:47:39.701Z,2.13
2023-04-30T09:48:31.953Z,2.08
2023-04-30T09:49:23.517Z,2.10
2023-04-30T09:50:15.167Z,2.40
2023-04-30T09:51:06.798Z,2.35
2023-04-30T09:52:00.822Z,2.09
2023-04-30T09:52:54.068Z,2.29
2023-04-30T09:53:45.861Z,2.17
2023-04-30T09:54:38.570Z,2.13
2023-04-30T09:55:30.205Z,2.12
2023-04-30T09:56:24.074Z,1.94
2023-04-30T09:57:16.772Z,2.02
2023-04-30T09:58:10.867Z,1.72
2023-04-30T09:59:07.973Z,1.66
2023-04-30T10:00:01.873Z,1.63
2023-04-30T10:01:06.550Z,1.61
2023-04-30T10:02:01.220Z,1.47
2023-04-30T10:02:54.303Z,1.57
2023-04-30T10:03:49.266Z,1.74
2023-04-30T10:04:45.319Z,1.85
2023-04-30T10:05:48.668Z,2.03
2023-04-30T10:06:42.482Z,1.99
2023-04-30T10:07:39.105Z,1.95
2023-04-30T10:08:38.829Z,2.05
2023-04-30T10:09:41.466Z,1.74
2023-04-30T10:10:41.603Z,1.62
2023-04-30T10:11:37.970Z,1.74
2023-04-30T10:12:50.275Z,1.71
2023-04-30T10:14:02.875Z,1.66
2023-04-30T10:15:04.537Z,2.09
2023-04-30T10:16:01.138Z,1.99
2023-04-30T10:17:06.622Z,1.96
2023-04-30T10:18:05.033Z,1.65
2023-04-30T10:19:02.729Z,1.61
2023-04-30T10:20:01.708Z,1.71
2023-04-30T10:20:55.364Z,2.03
2023-04-30T10:21:47.861Z,1.97
2023-04-30T10:22:41.755Z,2.29
2023-04-30T10:23:33.833Z,1.88
2023-04-30T10:24:25.502Z,2.02
2023-04-30T10:25:17.282Z,1.83
2023-04-30T10:26:12.484Z,2.05
2023-04-30T10:27:04.498Z,2.02
2023-04-30T10:27:56.669Z,2.27
2023-04-30T10:28:50.542Z,2.11
2023-04-30T10:29:43.260Z,1.74
2023-04-30T10:30:38.295Z,1.68
2023-04-30T10:31:31.105Z,1.84
2023-04-30T10:32:24.304Z,1.86
2023-04-30T10:33:22.647Z,1.89
2023-04-30T10:34:52.181Z,1.75
2023-04-30T10:35:53.425Z,1.86
2023-04-30T10:36:54.640Z,1.83
2023-04-30T10:37:53.614Z,2.18
2023-04-30T10:38:47.892Z,2.02
2023-04-30T10:39:41.017Z,1.88
2023-04-30T10:40:37.208Z,1.85
2023-04-30T10:41:29.475Z,1.88
2023-04-30T10:42:21.069Z,1.66
2023-04-30T10:43:13.681Z,1.99
2023-04-30T10:44:07.697Z,1.75
2023-04-30T10:45:03.545Z,1.48
2023-04-30T10:46:00.705Z,1.84
2023-04-30T10:46:59.218Z,1.72
2023-04-30T10:47:50.774Z,1.86
2023-04-30T10:48:42.328Z,2.22
2023-04-30T10:49:34.811Z,2.05
2023-04-30T10:50:26.221Z,2.07
2023-04-30T10:51:17.807Z,2.54
2023-04-30T10:52:11.459Z,2.21
2023-04-30T10:53:04.122Z,2.22
2023-04-30T10:53:56.878Z,2.13
2023-04-30T10:54:50.262Z,2.09
2023-04-30T10:55:53.756Z,2.14
2023-04-30T10:56:46.307Z,2.32
2023-04-30T10:57:43.290Z,2.21
2023-04-30T10:58:37.477Z,2.20
2023-04-30T10:59:29.029Z,2.07
2023-04-30T11:00:26.256Z,2.21
2023-04-30T11:01:17.883Z,2.03
2023-04-30T11:02:11.269Z,2.05
2023-04-30T11:03:04.080Z,2.09
2023-04-30T11:04:10.936Z,2.44
2023-04-30T11:05:15.470Z,1.96
2023-04-30T11:06:15.604Z,2.04
2023-04-30T11:07:10.860Z,1.77
2023-04-30T11:08:02.541Z,1.86
2023-04-30T11:09:05.333Z,2.12
2023-04-30T11:09:57.839Z,1.87
2023-04-30T11:11:01.526Z,1.71
2023-04-30T11:12:03.710Z,1.56
2023-04-30T11:12:59.403Z,1.75
2023-04-30T11:14:01.094Z,1.67
2023-04-30T11:14:52.951Z,1.68
2023-04-30T11:15:45.855Z,1.86
2023-04-30T11:16:37.942Z,1.80
2023-04-30T11:17:30.110Z,1.59
2023-04-30T11:18:21.830Z,1.60
2023-04-30T11:19:15.849Z,1.46
2023-04-30T11:20:14.398Z,1.61
2023-04-30T11:21:08.811Z,1.49
2023-04-30T11:22:03.300Z,1.45
2023-04-30T11:23:25.276Z,1.41
2023-04-30T11:25:03.800Z,1.50
2023-04-30T11:26:00.968Z,1.42
2023-04-30T11:27:10.095Z,1.47
2023-04-30T11:28:04.734Z,1.55
2023-04-30T11:28:57.970Z,1.41
2023-04-30T11:29:50.958Z,1.47
2023-04-30T11:30:51.525Z,1.61
2023-04-30T11:31:43.921Z,1.45
2023-04-30T11:32:37.568Z,1.39
2023-04-30T11:33:30.796Z,1.46
2023-04-30T11:34:23.723Z,1.36
2023-04-30T11:35:19.639Z,1.27
2023-04-30T11:36:11.190Z,1.36
2023-04-30T11:37:03.436Z,1.64
2023-04-30T11:37:56.920Z,1.40
2023-04-30T11:38:48.792Z,1.36
2023-04-30T11:39:42.231Z,1.43
2023-04-30T11:40:36.328Z,1.31
2023-04-30T11:41:32.448Z,1.21